sensor_id;sensor_type;location;lat;lon;timestamp;P1;durP1;ratioP1;P2;durP2;ratioP2
81510;SDS011;70931;48.796;8.440;2024-01-25T00:01:20;11.40;;;2.83;;
81510;SDS011;70931;48.796;8.440;2024-01-25T00:03:45;13.77;;;3.10;;
81510;SDS011;70931;48.796;8.440;2024-01-25T00:06:10;11.53;;;2.20;;
81510;SDS011;70931;48.796;8.440;2024-01-25T00:08:36;11.83;;;2.83;;
81510;SDS011;70931;48.796;8.440;2024-01-25T00:11:01;12.40;;;2.30;;
81510;SDS011;70931;48.796;8.440;2024-01-25T00:13:27;11.88;;;2.30;;
81510;SDS011;70931;48.796;8.440;2024-01-25T00:15:52;15.50;;;2.80;;
81510;SDS011;70931;48.796;8.440;2024-01-25T00:18:17;11.50;;;1.93;;
81510;SDS011;70931;48.796;8.440;2024-01-25T00:20:42;8.83;;;1.83;;
81510;SDS011;70931;48.796;8.440;2024-01-25T00:23:08;14.70;;;2.57;;
81510;SDS011;70931;48.796;8.440;2024-01-25T00:25:33;10.87;;;2.33;;
81510;SDS011;70931;48.796;8.440;2024-01-25T00:27:58;14.57;;;2.30;;
81510;SDS011;70931;48.796;8.440;2024-01-25T00:30:23;14.30;;;2.43;;
81510;SDS011;70931;48.796;8.440;2024-01-25T00:32:49;15.73;;;3.07;;
81510;SDS011;70931;48.796;8.440;2024-01-25T00:35:14;10.70;;;2.43;;
81510;SDS011;70931;48.796;8.440;2024-01-25T00:37:40;12.88;;;2.33;;
81510;SDS011;70931;48.796;8.440;2024-01-25T00:40:06;12.77;;;2.67;;
81510;SDS011;70931;48.796;8.440;2024-01-25T00:42:32;10.68;;;1.92;;
81510;SDS011;70931;48.796;8.440;2024-01-25T00:45:06;11.25;;;2.15;;
81510;SDS011;70931;48.796;8.440;2024-01-25T00:47:33;13.40;;;2.03;;
81510;SDS011;70931;48.796;8.440;2024-01-25T00:49:59;15.65;;;2.70;;
81510;SDS011;70931;48.796;8.440;2024-01-25T00:52:24;12.52;;;2.08;;
81510;SDS011;70931;48.796;8.440;2024-01-25T00:54:50;10.70;;;2.15;;
81510;SDS011;70931;48.796;8.440;2024-01-25T00:57:15;13.43;;;2.78;;
81510;SDS011;70931;48.796;8.440;2024-01-25T00:59:41;13.32;;;2.22;;
81510;SDS011;70931;48.796;8.440;2024-01-25T01:02:07;13.82;;;2.90;;
81510;SDS011;70931;48.796;8.440;2024-01-25T01:04:36;17.35;;;2.65;;
81510;SDS011;70931;48.796;8.440;2024-01-25T01:07:02;15.13;;;2.85;;
81510;SDS011;70931;48.796;8.440;2024-01-25T01:09:28;12.20;;;2.95;;
81510;SDS011;70931;48.796;8.440;2024-01-25T01:11:53;14.60;;;2.83;;
81510;SDS011;70931;48.796;8.440;2024-01-25T01:14:18;12.87;;;2.33;;
81510;SDS011;70931;48.796;8.440;2024-01-25T01:16:43;11.17;;;2.03;;
81510;SDS011;70931;48.796;8.440;2024-01-25T01:19:08;13.47;;;2.00;;
81510;SDS011;70931;48.796;8.440;2024-01-25T01:21:34;12.50;;;2.17;;
81510;SDS011;70931;48.796;8.440;2024-01-25T01:23:59;11.30;;;2.17;;
81510;SDS011;70931;48.796;8.440;2024-01-25T01:26:25;10.20;;;2.27;;
81510;SDS011;70931;48.796;8.440;2024-01-25T01:28:50;13.53;;;2.83;;
81510;SDS011;70931;48.796;8.440;2024-01-25T01:31:15;12.73;;;2.40;;
81510;SDS011;70931;48.796;8.440;2024-01-25T01:33:40;14.60;;;2.50;;
81510;SDS011;70931;48.796;8.440;2024-01-25T01:36:06;14.17;;;2.80;;
81510;SDS011;70931;48.796;8.440;2024-01-25T01:38:31;12.88;;;2.60;;
81510;SDS011;70931;48.796;8.440;2024-01-25T01:40:56;13.07;;;2.17;;
81510;SDS011;70931;48.796;8.440;2024-01-25T01:43:22;8.57;;;1.90;;
81510;SDS011;70931;48.796;8.440;2024-01-25T01:45:47;11.70;;;2.37;;
81510;SDS011;70931;48.796;8.440;2024-01-25T01:48:12;9.93;;;1.83;;
81510;SDS011;70931;48.796;8.440;2024-01-25T01:50:37;10.32;;;2.13;;
81510;SDS011;70931;48.796;8.440;2024-01-25T01:53:03;14.90;;;2.13;;
81510;SDS011;70931;48.796;8.440;2024-01-25T01:55:29;10.38;;;2.50;;
81510;SDS011;70931;48.796;8.440;2024-01-25T01:57:54;9.75;;;2.03;;
81510;SDS011;70931;48.796;8.440;2024-01-25T02:00:20;10.83;;;2.63;;
81510;SDS011;70931;48.796;8.440;2024-01-25T02:02:45;10.93;;;2.35;;
81510;SDS011;70931;48.796;8.440;2024-01-25T02:05:11;13.18;;;2.38;;
81510;SDS011;70931;48.796;8.440;2024-01-25T02:07:37;10.33;;;2.13;;
81510;SDS011;70931;48.796;8.440;2024-01-25T02:10:02;19.55;;;3.00;;
81510;SDS011;70931;48.796;8.440;2024-01-25T02:12:28;8.95;;;1.98;;
81510;SDS011;70931;48.796;8.440;2024-01-25T02:14:53;11.07;;;2.00;;
81510;SDS011;70931;48.796;8.440;2024-01-25T02:17:18;12.60;;;2.53;;
81510;SDS011;70931;48.796;8.440;2024-01-25T02:19:44;13.13;;;2.87;;
81510;SDS011;70931;48.796;8.440;2024-01-25T02:22:09;14.60;;;3.43;;
81510;SDS011;70931;48.796;8.440;2024-01-25T02:24:34;10.07;;;1.93;;
81510;SDS011;70931;48.796;8.440;2024-01-25T02:26:59;15.20;;;3.07;;
81510;SDS011;70931;48.796;8.440;2024-01-25T02:29:25;8.73;;;2.10;;
81510;SDS011;70931;48.796;8.440;2024-01-25T02:31:50;11.87;;;2.03;;
81510;SDS011;70931;48.796;8.440;2024-01-25T02:34:15;12.77;;;1.90;;
81510;SDS011;70931;48.796;8.440;2024-01-25T02:36:40;11.57;;;2.37;;
81510;SDS011;70931;48.796;8.440;2024-01-25T02:39:05;10.50;;;2.20;;
81510;SDS011;70931;48.796;8.440;2024-01-25T02:41:31;10.37;;;2.23;;
81510;SDS011;70931;48.796;8.440;2024-01-25T02:43:57;14.23;;;2.40;;
81510;SDS011;70931;48.796;8.440;2024-01-25T02:46:22;12.73;;;2.40;;
81510;SDS011;70931;48.796;8.440;2024-01-25T02:48:48;11.23;;;2.53;;
81510;SDS011;70931;48.796;8.440;2024-01-25T02:51:13;10.35;;;1.80;;
81510;SDS011;70931;48.796;8.440;2024-01-25T02:53:38;11.80;;;2.10;;
81510;SDS011;70931;48.796;8.440;2024-01-25T02:56:04;17.33;;;2.80;;
81510;SDS011;70931;48.796;8.440;2024-01-25T02:58:29;12.20;;;2.17;;
81510;SDS011;70931;48.796;8.440;2024-01-25T03:00:54;9.97;;;2.03;;
81510;SDS011;70931;48.796;8.440;2024-01-25T03:03:20;14.47;;;1.97;;
81510;SDS011;70931;48.796;8.440;2024-01-25T03:05:45;12.47;;;2.20;;
81510;SDS011;70931;48.796;8.440;2024-01-25T03:08:10;13.70;;;2.10;;
81510;SDS011;70931;48.796;8.440;2024-01-25T03:10:35;10.07;;;1.87;;
81510;SDS011;70931;48.796;8.440;2024-01-25T03:13:01;11.13;;;2.10;;
81510;SDS011;70931;48.796;8.440;2024-01-25T03:15:26;17.87;;;2.80;;
81510;SDS011;70931;48.796;8.440;2024-01-25T03:17:51;10.40;;;2.30;;
81510;SDS011;70931;48.796;8.440;2024-01-25T03:20:16;18.10;;;2.50;;
81510;SDS011;70931;48.796;8.440;2024-01-25T03:22:41;10.20;;;2.30;;
81510;SDS011;70931;48.796;8.440;2024-01-25T03:25:07;13.10;;;2.70;;
81510;SDS011;70931;48.796;8.440;2024-01-25T03:27:32;13.82;;;2.30;;
81510;SDS011;70931;48.796;8.440;2024-01-25T03:29:58;12.13;;;2.20;;
81510;SDS011;70931;48.796;8.440;2024-01-25T03:32:23;10.23;;;2.63;;
81510;SDS011;70931;48.796;8.440;2024-01-25T03:34:48;14.37;;;2.17;;
81510;SDS011;70931;48.796;8.440;2024-01-25T03:37:13;18.20;;;2.77;;
81510;SDS011;70931;48.796;8.440;2024-01-25T03:39:38;10.03;;;3.10;;
81510;SDS011;70931;48.796;8.440;2024-01-25T03:42:04;8.83;;;2.00;;
81510;SDS011;70931;48.796;8.440;2024-01-25T03:44:29;14.23;;;2.40;;
81510;SDS011;70931;48.796;8.440;2024-01-25T03:46:54;12.50;;;2.53;;
81510;SDS011;70931;48.796;8.440;2024-01-25T03:49:19;12.40;;;2.27;;
81510;SDS011;70931;48.796;8.440;2024-01-25T03:51:45;17.93;;;2.70;;
81510;SDS011;70931;48.796;8.440;2024-01-25T03:54:10;14.47;;;2.40;;
81510;SDS011;70931;48.796;8.440;2024-01-25T03:56:35;11.43;;;2.40;;
81510;SDS011;70931;48.796;8.440;2024-01-25T03:59:00;15.43;;;2.60;;
81510;SDS011;70931;48.796;8.440;2024-01-25T04:01:26;12.67;;;2.63;;
81510;SDS011;70931;48.796;8.440;2024-01-25T04:03:51;8.77;;;2.17;;
81510;SDS011;70931;48.796;8.440;2024-01-25T04:06:16;16.47;;;2.83;;
81510;SDS011;70931;48.796;8.440;2024-01-25T04:08:41;14.23;;;2.67;;
81510;SDS011;70931;48.796;8.440;2024-01-25T04:11:06;15.20;;;2.40;;
81510;SDS011;70931;48.796;8.440;2024-01-25T04:13:32;10.17;;;2.10;;
81510;SDS011;70931;48.796;8.440;2024-01-25T04:15:57;11.13;;;2.20;;
81510;SDS011;70931;48.796;8.440;2024-01-25T04:18:22;11.43;;;2.40;;
81510;SDS011;70931;48.796;8.440;2024-01-25T04:20:47;13.33;;;2.47;;
81510;SDS011;70931;48.796;8.440;2024-01-25T04:23:13;11.37;;;2.50;;
81510;SDS011;70931;48.796;8.440;2024-01-25T04:25:38;12.17;;;2.63;;
81510;SDS011;70931;48.796;8.440;2024-01-25T04:28:03;12.63;;;2.70;;
81510;SDS011;70931;48.796;8.440;2024-01-25T04:30:28;10.97;;;2.80;;
81510;SDS011;70931;48.796;8.440;2024-01-25T04:32:54;11.67;;;2.47;;
81510;SDS011;70931;48.796;8.440;2024-01-25T04:35:19;10.40;;;2.47;;
81510;SDS011;70931;48.796;8.440;2024-01-25T04:37:44;12.43;;;2.87;;
81510;SDS011;70931;48.796;8.440;2024-01-25T04:40:09;11.03;;;2.20;;
81510;SDS011;70931;48.796;8.440;2024-01-25T04:42:35;13.63;;;2.30;;
81510;SDS011;70931;48.796;8.440;2024-01-25T04:45:00;11.50;;;2.40;;
81510;SDS011;70931;48.796;8.440;2024-01-25T04:47:25;12.87;;;2.33;;
81510;SDS011;70931;48.796;8.440;2024-01-25T04:49:50;12.87;;;3.47;;
81510;SDS011;70931;48.796;8.440;2024-01-25T04:52:16;9.17;;;2.10;;
81510;SDS011;70931;48.796;8.440;2024-01-25T04:54:41;13.13;;;2.77;;
81510;SDS011;70931;48.796;8.440;2024-01-25T04:57:06;11.23;;;2.23;;
81510;SDS011;70931;48.796;8.440;2024-01-25T04:59:35;12.17;;;2.17;;
81510;SDS011;70931;48.796;8.440;2024-01-25T05:02:00;15.98;;;2.63;;
81510;SDS011;70931;48.796;8.440;2024-01-25T05:04:27;13.00;;;3.00;;
81510;SDS011;70931;48.796;8.440;2024-01-25T05:06:54;12.43;;;2.20;;
81510;SDS011;70931;48.796;8.440;2024-01-25T05:09:19;18.13;;;3.30;;
81510;SDS011;70931;48.796;8.440;2024-01-25T05:11:44;16.43;;;2.33;;
81510;SDS011;70931;48.796;8.440;2024-01-25T05:14:09;15.37;;;2.97;;
81510;SDS011;70931;48.796;8.440;2024-01-25T05:16:34;15.23;;;2.70;;
81510;SDS011;70931;48.796;8.440;2024-01-25T05:19:00;17.40;;;2.17;;
81510;SDS011;70931;48.796;8.440;2024-01-25T05:21:25;16.50;;;2.47;;
81510;SDS011;70931;48.796;8.440;2024-01-25T05:23:50;16.27;;;2.67;;
81510;SDS011;70931;48.796;8.440;2024-01-25T05:26:15;12.57;;;2.33;;
81510;SDS011;70931;48.796;8.440;2024-01-25T05:28:41;18.80;;;2.50;;
81510;SDS011;70931;48.796;8.440;2024-01-25T05:31:06;20.23;;;2.87;;
81510;SDS011;70931;48.796;8.440;2024-01-25T05:33:31;11.80;;;2.43;;
81510;SDS011;70931;48.796;8.440;2024-01-25T05:35:56;13.67;;;2.30;;
81510;SDS011;70931;48.796;8.440;2024-01-25T05:38:21;15.20;;;2.70;;
81510;SDS011;70931;48.796;8.440;2024-01-25T05:40:47;13.47;;;2.80;;
81510;SDS011;70931;48.796;8.440;2024-01-25T05:43:12;13.13;;;2.80;;
81510;SDS011;70931;48.796;8.440;2024-01-25T05:45:37;12.50;;;2.63;;
81510;SDS011;70931;48.796;8.440;2024-01-25T05:48:02;13.37;;;2.60;;
81510;SDS011;70931;48.796;8.440;2024-01-25T05:50:28;12.68;;;2.50;;
81510;SDS011;70931;48.796;8.440;2024-01-25T05:52:53;13.63;;;2.77;;
81510;SDS011;70931;48.796;8.440;2024-01-25T05:55:18;15.13;;;3.23;;
81510;SDS011;70931;48.796;8.440;2024-01-25T05:57:44;18.70;;;3.43;;
81510;SDS011;70931;48.796;8.440;2024-01-25T06:00:09;16.70;;;3.77;;
81510;SDS011;70931;48.796;8.440;2024-01-25T06:02:35;10.65;;;2.40;;
81510;SDS011;70931;48.796;8.440;2024-01-25T06:05:00;10.80;;;2.53;;
81510;SDS011;70931;48.796;8.440;2024-01-25T06:07:26;14.63;;;2.75;;
81510;SDS011;70931;48.796;8.440;2024-01-25T06:09:51;11.77;;;2.60;;
81510;SDS011;70931;48.796;8.440;2024-01-25T06:12:17;14.25;;;2.92;;
81510;SDS011;70931;48.796;8.440;2024-01-25T06:14:42;9.60;;;2.40;;
81510;SDS011;70931;48.796;8.440;2024-01-25T06:17:07;15.38;;;2.80;;
81510;SDS011;70931;48.796;8.440;2024-01-25T06:19:33;16.10;;;2.80;;
81510;SDS011;70931;48.796;8.440;2024-01-25T06:21:58;14.87;;;3.37;;
81510;SDS011;70931;48.796;8.440;2024-01-25T06:24:23;11.23;;;2.67;;
81510;SDS011;70931;48.796;8.440;2024-01-25T06:26:48;13.53;;;3.20;;
81510;SDS011;70931;48.796;8.440;2024-01-25T06:29:14;13.03;;;3.00;;
81510;SDS011;70931;48.796;8.440;2024-01-25T06:31:41;14.23;;;2.57;;
81510;SDS011;70931;48.796;8.440;2024-01-25T06:34:07;14.77;;;3.05;;
81510;SDS011;70931;48.796;8.440;2024-01-25T06:36:32;8.93;;;2.03;;
81510;SDS011;70931;48.796;8.440;2024-01-25T06:38:57;13.13;;;2.20;;
81510;SDS011;70931;48.796;8.440;2024-01-25T06:41:22;12.00;;;2.27;;
81510;SDS011;70931;48.796;8.440;2024-01-25T06:43:47;10.00;;;2.10;;
81510;SDS011;70931;48.796;8.440;2024-01-25T06:46:13;11.10;;;2.70;;
81510;SDS011;70931;48.796;8.440;2024-01-25T06:48:38;14.83;;;3.27;;
81510;SDS011;70931;48.796;8.440;2024-01-25T06:51:03;11.07;;;2.40;;
81510;SDS011;70931;48.796;8.440;2024-01-25T06:53:29;10.93;;;2.33;;
81510;SDS011;70931;48.796;8.440;2024-01-25T06:55:54;12.23;;;2.40;;
81510;SDS011;70931;48.796;8.440;2024-01-25T06:58:19;12.93;;;2.80;;
81510;SDS011;70931;48.796;8.440;2024-01-25T07:00:44;13.10;;;2.77;;
81510;SDS011;70931;48.796;8.440;2024-01-25T07:03:09;18.53;;;3.10;;
81510;SDS011;70931;48.796;8.440;2024-01-25T07:05:35;13.63;;;2.57;;
81510;SDS011;70931;48.796;8.440;2024-01-25T07:08:00;12.83;;;3.07;;
81510;SDS011;70931;48.796;8.440;2024-01-25T07:10:25;9.53;;;2.57;;
81510;SDS011;70931;48.796;8.440;2024-01-25T07:12:50;12.03;;;2.50;;
81510;SDS011;70931;48.796;8.440;2024-01-25T07:15:16;9.30;;;2.20;;
81510;SDS011;70931;48.796;8.440;2024-01-25T07:17:41;15.57;;;3.25;;
81510;SDS011;70931;48.796;8.440;2024-01-25T07:20:07;14.97;;;3.13;;
81510;SDS011;70931;48.796;8.440;2024-01-25T07:22:32;16.67;;;3.05;;
81510;SDS011;70931;48.796;8.440;2024-01-25T07:24:58;13.23;;;3.13;;
81510;SDS011;70931;48.796;8.440;2024-01-25T07:27:23;11.97;;;4.20;;
81510;SDS011;70931;48.796;8.440;2024-01-25T07:29:48;10.20;;;2.20;;
81510;SDS011;70931;48.796;8.440;2024-01-25T07:32:13;10.27;;;2.87;;
81510;SDS011;70931;48.796;8.440;2024-01-25T07:34:38;15.80;;;3.10;;
81510;SDS011;70931;48.796;8.440;2024-01-25T07:37:04;10.10;;;2.53;;
81510;SDS011;70931;48.796;8.440;2024-01-25T07:39:29;11.57;;;2.78;;
81510;SDS011;70931;48.796;8.440;2024-01-25T07:41:54;14.93;;;2.80;;
81510;SDS011;70931;48.796;8.440;2024-01-25T07:44:20;9.33;;;2.70;;
81510;SDS011;70931;48.796;8.440;2024-01-25T07:46:45;15.37;;;2.90;;
81510;SDS011;70931;48.796;8.440;2024-01-25T07:49:10;12.10;;;2.67;;
81510;SDS011;70931;48.796;8.440;2024-01-25T07:51:35;14.27;;;2.50;;
81510;SDS011;70931;48.796;8.440;2024-01-25T07:54:00;8.83;;;2.10;;
81510;SDS011;70931;48.796;8.440;2024-01-25T07:56:26;9.43;;;2.23;;
81510;SDS011;70931;48.796;8.440;2024-01-25T07:58:51;11.00;;;2.27;;
81510;SDS011;70931;48.796;8.440;2024-01-25T08:01:19;13.40;;;2.37;;
81510;SDS011;70931;48.796;8.440;2024-01-25T08:06:09;9.40;;;1.73;;
81510;SDS011;70931;48.796;8.440;2024-01-25T08:08:35;8.47;;;2.23;;
81510;SDS011;70931;48.796;8.440;2024-01-25T08:11:00;9.57;;;2.10;;
81510;SDS011;70931;48.796;8.440;2024-01-25T08:13:25;9.90;;;2.30;;
81510;SDS011;70931;48.796;8.440;2024-01-25T08:15:51;10.60;;;2.07;;
81510;SDS011;70931;48.796;8.440;2024-01-25T08:18:16;12.93;;;2.50;;
81510;SDS011;70931;48.796;8.440;2024-01-25T08:20:41;13.60;;;2.20;;
81510;SDS011;70931;48.796;8.440;2024-01-25T08:23:06;11.60;;;2.30;;
81510;SDS011;70931;48.796;8.440;2024-01-25T08:25:32;13.30;;;2.13;;
81510;SDS011;70931;48.796;8.440;2024-01-25T08:27:57;14.23;;;2.43;;
81510;SDS011;70931;48.796;8.440;2024-01-25T08:30:22;10.63;;;2.23;;
81510;SDS011;70931;48.796;8.440;2024-01-25T08:32:47;11.97;;;2.07;;
81510;SDS011;70931;48.796;8.440;2024-01-25T08:35:13;11.93;;;2.57;;
81510;SDS011;70931;48.796;8.440;2024-01-25T08:37:38;10.07;;;2.20;;
81510;SDS011;70931;48.796;8.440;2024-01-25T08:40:03;10.53;;;2.33;;
81510;SDS011;70931;48.796;8.440;2024-01-25T08:42:29;10.35;;;2.28;;
81510;SDS011;70931;48.796;8.440;2024-01-25T08:44:54;14.27;;;2.57;;
81510;SDS011;70931;48.796;8.440;2024-01-25T08:47:19;9.37;;;2.00;;
81510;SDS011;70931;48.796;8.440;2024-01-25T08:49:45;10.20;;;2.07;;
81510;SDS011;70931;48.796;8.440;2024-01-25T08:52:10;14.03;;;2.30;;
81510;SDS011;70931;48.796;8.440;2024-01-25T08:54:35;11.47;;;2.00;;
81510;SDS011;70931;48.796;8.440;2024-01-25T08:57:00;10.57;;;2.20;;
81510;SDS011;70931;48.796;8.440;2024-01-25T08:59:26;11.93;;;2.53;;
81510;SDS011;70931;48.796;8.440;2024-01-25T09:01:51;11.83;;;2.40;;
81510;SDS011;70931;48.796;8.440;2024-01-25T09:04:16;12.83;;;2.00;;
81510;SDS011;70931;48.796;8.440;2024-01-25T09:06:41;10.02;;;2.08;;
81510;SDS011;70931;48.796;8.440;2024-01-25T09:09:07;7.83;;;1.73;;
81510;SDS011;70931;48.796;8.440;2024-01-25T09:11:32;13.40;;;2.47;;
81510;SDS011;70931;48.796;8.440;2024-01-25T09:13:57;13.33;;;2.10;;
81510;SDS011;70931;48.796;8.440;2024-01-25T09:16:22;11.03;;;2.47;;
81510;SDS011;70931;48.796;8.440;2024-01-25T09:18:47;12.80;;;2.50;;
81510;SDS011;70931;48.796;8.440;2024-01-25T09:21:13;11.30;;;2.20;;
81510;SDS011;70931;48.796;8.440;2024-01-25T09:23:39;14.00;;;2.43;;
81510;SDS011;70931;48.796;8.440;2024-01-25T09:26:04;15.57;;;2.50;;
81510;SDS011;70931;48.796;8.440;2024-01-25T09:28:29;11.47;;;2.23;;
81510;SDS011;70931;48.796;8.440;2024-01-25T09:30:55;13.07;;;2.67;;
81510;SDS011;70931;48.796;8.440;2024-01-25T09:33:20;10.37;;;2.23;;
81510;SDS011;70931;48.796;8.440;2024-01-25T09:35:45;9.47;;;2.27;;
81510;SDS011;70931;48.796;8.440;2024-01-25T09:38:10;12.00;;;2.37;;
81510;SDS011;70931;48.796;8.440;2024-01-25T09:40:35;8.97;;;1.97;;
81510;SDS011;70931;48.796;8.440;2024-01-25T09:43:01;7.60;;;2.07;;
81510;SDS011;70931;48.796;8.440;2024-01-25T09:45:26;10.33;;;2.37;;
81510;SDS011;70931;48.796;8.440;2024-01-25T09:47:51;9.10;;;1.60;;
81510;SDS011;70931;48.796;8.440;2024-01-25T09:50:17;9.43;;;1.90;;
81510;SDS011;70931;48.796;8.440;2024-01-25T09:52:45;15.97;;;2.70;;
81510;SDS011;70931;48.796;8.440;2024-01-25T09:55:19;9.23;;;2.05;;
81510;SDS011;70931;48.796;8.440;2024-01-25T09:57:49;13.10;;;2.20;;
81510;SDS011;70931;48.796;8.440;2024-01-25T10:00:19;10.45;;;2.15;;
81510;SDS011;70931;48.796;8.440;2024-01-25T10:02:44;10.10;;;2.60;;
81510;SDS011;70931;48.796;8.440;2024-01-25T10:05:09;9.47;;;2.10;;
81510;SDS011;70931;48.796;8.440;2024-01-25T10:07:41;9.77;;;2.00;;
81510;SDS011;70931;48.796;8.440;2024-01-25T10:10:08;11.45;;;2.15;;
81510;SDS011;70931;48.796;8.440;2024-01-25T10:12:34;14.38;;;2.28;;
81510;SDS011;70931;48.796;8.440;2024-01-25T10:15:00;10.60;;;2.07;;
81510;SDS011;70931;48.796;8.440;2024-01-25T10:17:27;10.35;;;2.28;;
81510;SDS011;70931;48.796;8.440;2024-01-25T10:19:53;12.23;;;2.40;;
81510;SDS011;70931;48.796;8.440;2024-01-25T10:22:18;8.13;;;2.03;;
81510;SDS011;70931;48.796;8.440;2024-01-25T10:24:43;10.68;;;2.55;;
81510;SDS011;70931;48.796;8.440;2024-01-25T10:27:09;11.43;;;2.50;;
81510;SDS011;70931;48.796;8.440;2024-01-25T10:29:34;7.67;;;1.57;;
81510;SDS011;70931;48.796;8.440;2024-01-25T10:32:00;8.80;;;1.67;;
81510;SDS011;70931;48.796;8.440;2024-01-25T10:34:27;5.97;;;1.45;;
81510;SDS011;70931;48.796;8.440;2024-01-25T10:36:53;11.40;;;1.70;;
81510;SDS011;70931;48.796;8.440;2024-01-25T10:39:20;11.88;;;1.90;;
81510;SDS011;70931;48.796;8.440;2024-01-25T10:41:46;10.80;;;1.92;;
81510;SDS011;70931;48.796;8.440;2024-01-25T10:44:12;9.77;;;1.70;;
81510;SDS011;70931;48.796;8.440;2024-01-25T10:46:37;11.07;;;1.80;;
81510;SDS011;70931;48.796;8.440;2024-01-25T10:49:04;12.65;;;2.63;;
81510;SDS011;70931;48.796;8.440;2024-01-25T10:51:31;10.02;;;1.58;;
81510;SDS011;70931;48.796;8.440;2024-01-25T10:53:56;11.30;;;1.60;;
81510;SDS011;70931;48.796;8.440;2024-01-25T10:56:22;8.98;;;1.63;;
81510;SDS011;70931;48.796;8.440;2024-01-25T10:58:47;11.70;;;2.00;;
81510;SDS011;70931;48.796;8.440;2024-01-25T11:01:13;10.30;;;1.40;;
81510;SDS011;70931;48.796;8.440;2024-01-25T11:03:38;11.27;;;2.27;;
81510;SDS011;70931;48.796;8.440;2024-01-25T11:06:08;9.30;;;1.50;;
81510;SDS011;70931;48.796;8.440;2024-01-25T11:08:35;8.15;;;1.88;;
81510;SDS011;70931;48.796;8.440;2024-01-25T11:11:01;5.75;;;1.42;;
81510;SDS011;70931;48.796;8.440;2024-01-25T11:13:26;10.27;;;1.60;;
81510;SDS011;70931;48.796;8.440;2024-01-25T11:15:52;11.00;;;1.92;;
81510;SDS011;70931;48.796;8.440;2024-01-25T11:18:17;10.93;;;1.73;;
81510;SDS011;70931;48.796;8.440;2024-01-25T11:20:42;9.52;;;1.42;;
81510;SDS011;70931;48.796;8.440;2024-01-25T11:23:13;9.80;;;1.67;;
81510;SDS011;70931;48.796;8.440;2024-01-25T11:25:40;7.18;;;1.40;;
81510;SDS011;70931;48.796;8.440;2024-01-25T11:28:10;9.43;;;1.50;;
81510;SDS011;70931;48.796;8.440;2024-01-25T11:30:36;6.25;;;1.10;;
81510;SDS011;70931;48.796;8.440;2024-01-25T11:33:04;7.63;;;1.50;;
81510;SDS011;70931;48.796;8.440;2024-01-25T11:35:29;9.43;;;1.90;;
81510;SDS011;70931;48.796;8.440;2024-01-25T11:37:55;6.20;;;1.60;;
81510;SDS011;70931;48.796;8.440;2024-01-25T11:40:20;8.10;;;1.70;;
81510;SDS011;70931;48.796;8.440;2024-01-25T11:42:47;6.67;;;1.60;;
81510;SDS011;70931;48.796;8.440;2024-01-25T11:47:39;8.32;;;1.63;;
81510;SDS011;70931;48.796;8.440;2024-01-25T11:50:05;7.35;;;2.13;;
81510;SDS011;70931;48.796;8.440;2024-01-25T11:52:32;8.57;;;2.00;;
81510;SDS011;70931;48.796;8.440;2024-01-25T11:54:57;5.93;;;1.50;;
81510;SDS011;70931;48.796;8.440;2024-01-25T11:57:22;9.10;;;1.90;;
81510;SDS011;70931;48.796;8.440;2024-01-25T11:59:48;8.43;;;1.77;;
81510;SDS011;70931;48.796;8.440;2024-01-25T12:02:13;9.38;;;1.88;;
81510;SDS011;70931;48.796;8.440;2024-01-25T12:04:39;5.70;;;1.37;;
81510;SDS011;70931;48.796;8.440;2024-01-25T12:07:05;7.72;;;1.88;;
81510;SDS011;70931;48.796;8.440;2024-01-25T12:09:30;8.73;;;1.58;;
81510;SDS011;70931;48.796;8.440;2024-01-25T12:11:55;8.33;;;1.60;;
81510;SDS011;70931;48.796;8.440;2024-01-25T12:14:21;7.10;;;1.70;;
81510;SDS011;70931;48.796;8.440;2024-01-25T12:19:14;10.07;;;1.87;;
81510;SDS011;70931;48.796;8.440;2024-01-25T12:21:39;7.60;;;2.33;;
81510;SDS011;70931;48.796;8.440;2024-01-25T12:24:09;8.98;;;2.03;;
81510;SDS011;70931;48.796;8.440;2024-01-25T12:26:34;8.45;;;1.60;;
81510;SDS011;70931;48.796;8.440;2024-01-25T12:29:00;7.40;;;1.70;;
81510;SDS011;70931;48.796;8.440;2024-01-25T12:31:25;8.23;;;1.33;;
81510;SDS011;70931;48.796;8.440;2024-01-25T12:33:50;6.17;;;1.37;;
81510;SDS011;70931;48.796;8.440;2024-01-25T12:36:15;8.27;;;1.93;;
81510;SDS011;70931;48.796;8.440;2024-01-25T12:38:41;8.23;;;1.40;;
81510;SDS011;70931;48.796;8.440;2024-01-25T12:41:06;9.57;;;1.87;;
81510;SDS011;70931;48.796;8.440;2024-01-25T12:43:31;11.23;;;1.87;;
81510;SDS011;70931;48.796;8.440;2024-01-25T12:45:56;7.10;;;1.40;;
81510;SDS011;70931;48.796;8.440;2024-01-25T12:48:22;7.23;;;1.73;;
81510;SDS011;70931;48.796;8.440;2024-01-25T12:50:47;7.73;;;1.63;;
81510;SDS011;70931;48.796;8.440;2024-01-25T12:53:12;9.07;;;1.83;;
81510;SDS011;70931;48.796;8.440;2024-01-25T12:55:38;6.18;;;1.20;;
81510;SDS011;70931;48.796;8.440;2024-01-25T12:58:03;5.80;;;1.35;;
81510;SDS011;70931;48.796;8.440;2024-01-25T13:00:29;6.43;;;1.38;;
81510;SDS011;70931;48.796;8.440;2024-01-25T13:02:54;6.40;;;1.30;;
81510;SDS011;70931;48.796;8.440;2024-01-25T13:05:19;9.33;;;1.47;;
81510;SDS011;70931;48.796;8.440;2024-01-25T13:07:45;7.63;;;1.70;;
81510;SDS011;70931;48.796;8.440;2024-01-25T13:10:10;5.27;;;1.30;;
81510;SDS011;70931;48.796;8.440;2024-01-25T13:12:35;8.00;;;1.60;;
81510;SDS011;70931;48.796;8.440;2024-01-25T13:15:00;7.43;;;1.57;;
81510;SDS011;70931;48.796;8.440;2024-01-25T13:17:25;8.53;;;1.70;;
81510;SDS011;70931;48.796;8.440;2024-01-25T13:19:51;9.03;;;1.50;;
81510;SDS011;70931;48.796;8.440;2024-01-25T13:22:16;8.70;;;1.50;;
81510;SDS011;70931;48.796;8.440;2024-01-25T13:24:41;7.43;;;1.40;;
81510;SDS011;70931;48.796;8.440;2024-01-25T13:27:06;8.80;;;1.77;;
81510;SDS011;70931;48.796;8.440;2024-01-25T13:29:32;8.97;;;1.77;;
81510;SDS011;70931;48.796;8.440;2024-01-25T13:31:57;8.23;;;1.57;;
81510;SDS011;70931;48.796;8.440;2024-01-25T13:34:22;9.23;;;1.97;;
81510;SDS011;70931;48.796;8.440;2024-01-25T13:36:47;6.33;;;1.37;;
81510;SDS011;70931;48.796;8.440;2024-01-25T13:39:13;8.93;;;2.07;;
81510;SDS011;70931;48.796;8.440;2024-01-25T13:41:38;9.70;;;1.60;;
81510;SDS011;70931;48.796;8.440;2024-01-25T13:44:03;6.20;;;1.40;;
81510;SDS011;70931;48.796;8.440;2024-01-25T13:46:28;8.63;;;1.37;;
81510;SDS011;70931;48.796;8.440;2024-01-25T13:48:54;10.77;;;1.50;;
81510;SDS011;70931;48.796;8.440;2024-01-25T13:51:19;9.67;;;2.33;;
81510;SDS011;70931;48.796;8.440;2024-01-25T13:53:44;8.03;;;1.57;;
81510;SDS011;70931;48.796;8.440;2024-01-25T13:56:09;8.30;;;1.50;;
81510;SDS011;70931;48.796;8.440;2024-01-25T13:58:34;9.83;;;1.83;;
81510;SDS011;70931;48.796;8.440;2024-01-25T14:01:00;7.50;;;1.43;;
81510;SDS011;70931;48.796;8.440;2024-01-25T14:03:25;9.63;;;1.70;;
81510;SDS011;70931;48.796;8.440;2024-01-25T14:05:50;8.03;;;1.47;;
81510;SDS011;70931;48.796;8.440;2024-01-25T14:08:15;11.73;;;2.03;;
81510;SDS011;70931;48.796;8.440;2024-01-25T14:10:41;8.17;;;1.50;;
81510;SDS011;70931;48.796;8.440;2024-01-25T14:13:06;8.80;;;1.97;;
81510;SDS011;70931;48.796;8.440;2024-01-25T14:15:31;7.27;;;1.73;;
81510;SDS011;70931;48.796;8.440;2024-01-25T14:17:56;10.67;;;2.07;;
81510;SDS011;70931;48.796;8.440;2024-01-25T14:20:22;9.13;;;1.70;;
81510;SDS011;70931;48.796;8.440;2024-01-25T14:22:47;9.53;;;1.73;;
81510;SDS011;70931;48.796;8.440;2024-01-25T14:25:12;6.37;;;1.43;;
81510;SDS011;70931;48.796;8.440;2024-01-25T14:27:37;10.30;;;1.60;;
81510;SDS011;70931;48.796;8.440;2024-01-25T14:30:04;8.75;;;1.58;;
81510;SDS011;70931;48.796;8.440;2024-01-25T14:32:29;6.57;;;1.60;;
81510;SDS011;70931;48.796;8.440;2024-01-25T14:34:55;6.83;;;1.23;;